KBWG/BWG METAR and TAF weather

Enter ICAO airport designator
Station Type Date Time Source
KBWG METAR 2019/06/17 06:53 UTC NOAA

KBWG 170653Z AUTO 08004KT 10SM CLR 23/19 A2993 RMK AO2 LTG DSNT S SLP130 T02280189 $


Station Type Date Time Source
KBWG Decoded METAR 2019/06/17 06:53 UTC NOAA

BOWLING GREEN-WARREN CO RGNL, KY, United States (KBWG) 36-58N 086-25W 161M
Jun 17, 2019 - 02:53 AM EDT / 2019.06.17 0653 UTC
Wind: from the E (080 degrees) at 5 MPH (4 KT):0
Visibility: 10 mile(s):0
Sky conditions: clear
Weather: Lightning observed
Temperature: 73.0 F (22.8 C)
Dew Point: 66.0 F (18.9 C)
Relative Humidity: 78%
Pressure (altimeter): 29.93 in. Hg (1013 hPa)
ob: KBWG 170653Z AUTO 08004KT 10SM CLR 23/19 A2993 RMK AO2 LTG DSNT S SLP130 T02280189
cycle: 7

Station Type Date Time Source
KBWG TAF 2019/06/17 06:30 UTC NOAA

TAF KBWG 170529Z 1706/1806 22006KT P6SM SCT100 OVC250
FM171500 24011G17KT P6SM SCT050 BKN100 PROB30 1720/1801 2SM TSRA BKN035CB
FM180200 18004KT P6SM VCSH BKN040

Example: see airport list